KBFF/BFF METAR and TAF weather

Enter ICAO airport designator
Station Type Date Time Source
KBFF METAR 2021/05/12 01:30 UTC NOAA

KBFF 120130Z AUTO 13009KT 10SM FEW018 SCT030 OVC038 07/04 A3029 RMK AO2 RAE05 P0000 T00720044


Station Type Date Time Source
KBFF Decoded METAR 2021/05/12 01:30 UTC NOAA

SCOTTSBLUFF HEILIG FIELD, NE, United States (KBFF) 41-52N 103-36W 1203M
May 11, 2021 - 09:30 PM EDT / 2021.05.12 0130 UTC
Wind: from the SE (130 degrees) at 10 MPH (9 KT):0
Visibility: 10 mile(s):0
Sky conditions: overcast
Precipitation last hour: A trace
Temperature: 45.0 F (7.2 C)
Dew Point: 39.9 F (4.4 C)
Relative Humidity: 82%
Pressure (altimeter): 30.29 in. Hg (1025 hPa)
ob: KBFF 120130Z AUTO 13009KT 10SM FEW018 SCT030 OVC038 07/04 A3029 RMK AO2 RAE05 P0000 T00720044
cycle: 1

Station Type Date Time Source
KBFF TAF 2021/05/12 02:40 UTC NOAA

TAF
AMD KBFF 120138Z 1202/1224 18010KT P6SM OVC035
TEMPO 1202/1206 3SM -RA OVC019
FM120700 13007KT P6SM OVC035
FM121200 13010KT P6SM OVC025
FM121600 17013KT P6SM SCT025
FM121700 18012G22KT P6SM SCT050
FM122000 29012G23KT P6SM SKC

Example: see airport list